createdAt,value
2022-11-29T00:03:28.084Z,68.57
2022-11-29T00:08:29.794Z,68.53
2022-11-29T00:13:31.392Z,68.46
2022-11-29T00:18:33.224Z,68.50
2022-11-29T00:23:35.953Z,68.59
2022-11-29T00:28:37.547Z,68.62
2022-11-29T00:33:39.133Z,68.64
2022-11-29T00:38:41.384Z,68.92
2022-11-29T00:43:43.190Z,68.61
2022-11-29T00:48:44.908Z,68.96
2022-11-29T00:53:46.934Z,68.83
2022-11-29T00:58:49.421Z,68.75
2022-11-29T01:03:51.028Z,68.85
2022-11-29T01:08:52.840Z,68.81
2022-11-29T01:13:57.397Z,68.82
2022-11-29T01:18:59.003Z,69.17
2022-11-29T01:24:01.801Z,69.13
2022-11-29T01:29:03.438Z,69.05
2022-11-29T01:34:06.770Z,68.90
2022-11-29T01:39:08.461Z,69.00
2022-11-29T01:44:12.775Z,69.05
2022-11-29T01:49:26.267Z,69.07
2022-11-29T01:54:30.027Z,69.39
2022-11-29T01:59:31.896Z,69.20
2022-11-29T02:04:37.936Z,68.91
2022-11-29T02:09:39.547Z,68.84
2022-11-29T02:14:45.328Z,68.93
2022-11-29T02:20:08.662Z,68.68
2022-11-29T02:25:24.064Z,68.58
2022-11-29T02:30:35.117Z,69.11
2022-11-29T02:35:51.896Z,69.90
2022-11-29T02:40:56.374Z,69.10
2022-11-29T02:46:25.224Z,69.20
2022-11-29T02:51:38.273Z,69.57
2022-11-29T02:56:46.569Z,69.29
2022-11-29T03:02:29.644Z,69.21
2022-11-29T03:08:03.557Z,69.06
2022-11-29T03:13:16.988Z,69.46
2022-11-29T03:18:51.084Z,69.61
2022-11-29T03:23:58.879Z,70.01
2022-11-29T03:29:09.131Z,69.96
2022-11-29T03:34:29.653Z,70.02
2022-11-29T03:39:43.976Z,70.02
2022-11-29T03:44:53.318Z,69.89
2022-11-29T03:50:03.564Z,69.69
2022-11-29T03:55:20.276Z,69.69
2022-11-29T04:00:22.611Z,69.52
2022-11-29T04:05:37.843Z,69.61
2022-11-29T04:11:13.711Z,69.34
2022-11-29T04:16:43.078Z,69.66
2022-11-29T04:21:59.683Z,69.93
2022-11-29T04:27:21.148Z,69.68
2022-11-29T04:32:28.350Z,70.34
2022-11-29T04:38:03.609Z,69.84
2022-11-29T04:43:35.858Z,70.02
2022-11-29T04:49:15.206Z,69.90
2022-11-29T04:54:31.376Z,70.11
2022-11-29T04:59:59.064Z,69.81
2022-11-29T05:05:28.536Z,69.75
2022-11-29T05:10:58.161Z,70.02
2022-11-29T05:16:08.127Z,70.31
2022-11-29T05:21:19.333Z,70.18
2022-11-29T05:26:38.373Z,70.33
2022-11-29T05:32:04.331Z,70.16
2022-11-29T05:37:17.936Z,70.06
2022-11-29T05:42:47.431Z,69.88
2022-11-29T05:48:07.218Z,69.93
2022-11-29T05:53:23.617Z,69.69
2022-11-29T05:58:52.322Z,69.68
2022-11-29T06:03:59.359Z,69.62
2022-11-29T06:09:21.784Z,69.79
2022-11-29T06:14:35.503Z,70.04
2022-11-29T06:19:54.260Z,69.85
2022-11-29T06:25:17.562Z,69.75
2022-11-29T06:30:26.417Z,69.51
2022-11-29T06:35:47.111Z,69.29
2022-11-29T06:40:49.802Z,69.58
2022-11-29T06:46:12.929Z,69.36
2022-11-29T06:51:44.252Z,69.25
2022-11-29T06:57:11.994Z,69.48
2022-11-29T07:02:54.312Z,69.29
2022-11-29T07:08:02.481Z,69.19
2022-11-29T07:13:04.394Z,69.41
2022-11-29T07:18:24.303Z,69.50
2022-11-29T07:23:36.094Z,69.56
2022-11-29T07:29:10.583Z,69.37
2022-11-29T07:34:22.309Z,69.30
2022-11-29T07:39:39.563Z,69.41
2022-11-29T07:45:06.452Z,69.22
2022-11-29T07:50:08.425Z,69.30
2022-11-29T07:55:18.688Z,69.48
2022-11-29T08:00:21.441Z,69.52
2022-11-29T08:05:24.020Z,69.37
2022-11-29T08:10:26.007Z,69.05
2022-11-29T08:15:27.649Z,69.18
2022-11-29T08:20:29.241Z,69.30
2022-11-29T08:25:30.836Z,69.06
2022-11-29T08:30:33.165Z,69.04
2022-11-29T08:35:35.172Z,69.03
2022-11-29T08:40:36.775Z,69.09
2022-11-29T08:45:38.413Z,69.00
2022-11-29T08:50:40.036Z,68.75
2022-11-29T08:55:43.042Z,68.94
2022-11-29T09:00:47.143Z,68.87
2022-11-29T09:05:49.030Z,68.88
2022-11-29T09:10:50.949Z,68.76
2022-11-29T09:15:52.540Z,68.79
2022-11-29T09:20:54.299Z,68.80
2022-11-29T09:25:56.469Z,68.77
2022-11-29T09:31:05.079Z,68.89
2022-11-29T09:36:12.722Z,68.76
2022-11-29T09:41:26.504Z,68.49
2022-11-29T09:46:43.436Z,68.78
2022-11-29T09:52:22.385Z,68.66
2022-11-29T09:57:27.030Z,68.70
2022-11-29T10:02:37.472Z,68.63
2022-11-29T10:08:07.771Z,68.58
2022-11-29T10:13:29.729Z,68.40
2022-11-29T10:18:44.624Z,68.52
2022-11-29T10:23:51.119Z,68.56
2022-11-29T10:28:55.362Z,68.32
2022-11-29T10:34:00.301Z,68.36
2022-11-29T10:39:10.052Z,68.37
2022-11-29T10:44:15.871Z,68.58
2022-11-29T10:49:21.873Z,68.50
2022-11-29T10:54:44.424Z,68.62
2022-11-29T11:00:04.513Z,68.55
2022-11-29T11:05:18.652Z,68.44
2022-11-29T11:10:29.659Z,68.35
2022-11-29T11:15:32.943Z,68.40
2022-11-29T11:20:41.588Z,68.40
2022-11-29T11:25:43.320Z,68.30
2022-11-29T11:31:00.328Z,68.37
2022-11-29T11:36:09.981Z,68.00
2022-11-29T11:41:48.380Z,68.04
2022-11-29T11:46:50.768Z,68.23
2022-11-29T11:51:52.520Z,68.08
2022-11-29T11:56:55.499Z,68.27
2022-11-29T12:01:57.633Z,68.43
2022-11-29T12:07:00.968Z,68.29
2022-11-29T12:12:20.613Z,68.28
2022-11-29T12:17:33.367Z,68.16
2022-11-29T12:22:48.426Z,67.70
2022-11-29T12:27:50.793Z,67.57
2022-11-29T12:33:12.493Z,67.12
2022-11-29T12:38:31.268Z,67.16
2022-11-29T12:43:51.344Z,67.21
2022-11-29T12:49:21.139Z,67.23
2022-11-29T12:54:44.836Z,67.52
2022-11-29T13:00:17.826Z,67.59
2022-11-29T13:05:43.083Z,67.48
2022-11-29T13:11:12.221Z,67.76
2022-11-29T13:16:22.001Z,67.14
2022-11-29T13:21:39.215Z,67.06
2022-11-29T13:26:42.056Z,67.01
2022-11-29T13:31:45.699Z,66.80
2022-11-29T13:36:59.335Z,66.65
2022-11-29T13:42:42.453Z,66.44
2022-11-29T13:47:56.610Z,66.16
2022-11-29T13:53:13.646Z,66.48
2022-11-29T13:58:17.527Z,66.60
2022-11-29T14:03:29.061Z,66.90
2022-11-29T14:09:10.856Z,66.84
2022-11-29T14:14:08.603Z,67.00
2022-11-29T14:19:10.151Z,66.76
2022-11-29T14:24:36.278Z,66.24
2022-11-29T14:29:50.166Z,66.36
2022-11-29T14:35:10.207Z,66.72
2022-11-29T14:40:17.855Z,66.82
2022-11-29T14:45:34.335Z,66.85
2022-11-29T14:50:39.874Z,66.93
2022-11-29T14:55:43.038Z,67.24
2022-11-29T15:00:47.312Z,67.34
2022-11-29T15:06:01.069Z,67.31
2022-11-29T15:11:44.318Z,67.41
2022-11-29T15:17:13.516Z,67.62
2022-11-29T15:22:19.585Z,67.45
2022-11-29T15:27:22.367Z,67.68
2022-11-29T15:32:32.664Z,67.77
2022-11-29T15:37:34.209Z,67.98
2022-11-29T15:42:47.713Z,67.91
2022-11-29T15:47:49.459Z,68.15
2022-11-29T15:52:54.446Z,68.23
2022-11-29T15:58:01.597Z,68.40
2022-11-29T16:03:07.699Z,69.11
2022-11-29T16:08:19.242Z,68.97
2022-11-29T16:13:32.709Z,69.05
2022-11-29T16:18:35.162Z,69.38
2022-11-29T16:23:39.618Z,69.20
2022-11-29T16:28:47.136Z,69.44
2022-11-29T16:33:51.284Z,69.58
2022-11-29T16:38:58.877Z,70.54
2022-11-29T16:44:03.387Z,70.10
2022-11-29T16:49:33.832Z,69.95
2022-11-29T16:54:35.427Z,70.11
2022-11-29T16:59:38.715Z,70.19
2022-11-29T17:04:41.558Z,70.63
2022-11-29T17:09:43.329Z,70.21
2022-11-29T17:14:45.568Z,70.02
2022-11-29T17:19:47.299Z,70.02
2022-11-29T17:24:49.174Z,70.06
2022-11-29T17:29:50.789Z,69.95
2022-11-29T17:34:52.472Z,69.89
2022-11-29T17:39:54.707Z,69.89
2022-11-29T17:44:56.540Z,69.61
2022-11-29T17:49:58.196Z,69.69
2022-11-29T17:54:59.812Z,69.48
2022-11-29T18:00:04.232Z,69.44
2022-11-29T18:05:06.330Z,69.55
2022-11-29T18:10:08.879Z,69.52
2022-11-29T18:15:10.476Z,69.13
2022-11-29T18:20:14.093Z,69.03
2022-11-29T18:25:38.227Z,69.09
2022-11-29T18:30:47.212Z,69.15
2022-11-29T18:35:49.402Z,69.04
2022-11-29T18:40:51.174Z,68.86
2022-11-29T18:45:53.028Z,68.74
2022-11-29T18:50:54.723Z,68.78
2022-11-29T18:56:04.337Z,68.58
2022-11-29T19:01:10.382Z,68.69
2022-11-29T19:06:14.760Z,68.70
2022-11-29T19:11:20.879Z,68.54
2022-11-29T19:16:24.503Z,68.33
2022-11-29T19:21:28.704Z,68.50
2022-11-29T19:26:31.908Z,68.61
2022-11-29T19:31:33.585Z,68.48
2022-11-29T19:36:37.342Z,68.42
2022-11-29T19:41:39.089Z,68.06
2022-11-29T19:46:44.614Z,68.36
2022-11-29T19:51:46.224Z,68.38
2022-11-29T19:56:47.862Z,68.54
2022-11-29T20:01:49.884Z,68.55
2022-11-29T20:06:51.722Z,68.50
2022-11-29T20:11:53.300Z,68.53
2022-11-29T20:16:54.884Z,68.59
2022-11-29T20:21:56.538Z,68.68
2022-11-29T20:26:58.115Z,68.55
2022-11-29T20:32:00.028Z,68.37
2022-11-29T20:37:10.378Z,68.32
2022-11-29T20:42:48.947Z,68.30
2022-11-29T20:48:16.455Z,68.38
2022-11-29T20:53:31.807Z,68.43
2022-11-29T20:58:34.017Z,68.20
2022-11-29T21:03:35.963Z,68.23
2022-11-29T21:08:37.604Z,68.16
2022-11-29T21:13:39.576Z,68.45
2022-11-29T21:18:41.513Z,68.49
2022-11-29T21:23:52.686Z,68.47
2022-11-29T21:29:07.172Z,68.21
2022-11-29T21:34:08.940Z,68.51
2022-11-29T21:39:14.813Z,68.70
2022-11-29T21:44:16.465Z,68.54
2022-11-29T21:49:18.038Z,68.39
2022-11-29T21:54:19.637Z,68.22
2022-11-29T21:59:21.731Z,68.14
2022-11-29T22:04:23.407Z,68.12
2022-11-29T22:09:25.000Z,68.29
2022-11-29T22:14:26.596Z,68.52
2022-11-29T22:19:30.602Z,68.30
2022-11-29T22:24:34.261Z,68.16
2022-11-29T22:29:35.853Z,68.39
2022-11-29T22:34:37.504Z,68.30
2022-11-29T22:39:39.121Z,68.16
2022-11-29T22:44:40.726Z,68.33
2022-11-29T22:49:44.508Z,68.36
2022-11-29T22:54:46.335Z,68.45
2022-11-29T22:59:48.107Z,68.60
2022-11-29T23:04:49.697Z,68.39
2022-11-29T23:09:51.493Z,68.64
2022-11-29T23:14:56.219Z,68.55
2022-11-29T23:19:58.310Z,68.56
2022-11-29T23:24:59.881Z,68.49
2022-11-29T23:30:01.532Z,68.34
2022-11-29T23:35:03.166Z,68.40
2022-11-29T23:40:06.108Z,68.34
2022-11-29T23:45:07.970Z,68.22
2022-11-29T23:50:10.704Z,68.17
2022-11-29T23:55:14.456Z,68.34
